Time;durP1;ratioP1;P1;durP2;ratioP2;P2;SDS_P1;SDS_P2;PMS_P1;PMS_P2;Temp;Humidity;BMP_temperature;BMP_pressure;BME280_temperature;BME280_humidity;BME280_pressure;Samples;Min_cycle;Max_cycle;Signal;HPM_P1;HPM_P2
2023/09/08 00:00:47;;;;;;;8.57;6.85;;;;;;;22.74;82.58;98973.81;4977163;28;20041;-63
2023/09/08 00:03:15;;;;;;;9.43;7.00;;;;;;;22.83;82.25;98969.88;4994324;28;20101;-63
2023/09/08 00:05:43;;;;;;;10.85;7.20;;;;;;;22.84;81.83;98966.19;4985487;28;20058;-61
2023/09/08 00:08:11;;;;;;;10.00;7.78;;;;;;;22.83;82.31;98972.53;4993609;28;20042;-62
2023/09/08 00:10:38;;;;;;;9.10;6.75;;;;;;;22.76;82.48;98972.59;4984205;28;20038;-62
2023/09/08 00:13:04;;;;;;;11.40;7.13;;;;;;;22.85;81.86;98970.47;4983144;28;20038;-63
2023/09/08 00:15:33;;;;;;;10.75;7.18;;;;;;;22.81;82.45;98970.06;4975474;28;20040;-63
2023/09/08 00:17:59;;;;;;;9.60;7.20;;;;;;;22.81;82.26;98956.81;4980705;28;20041;-63
2023/09/08 00:20:24;;;;;;;10.25;7.10;;;;;;;22.90;81.59;98973.28;4970933;28;20030;-64
2023/09/08 00:22:50;;;;;;;9.27;6.60;;;;;;;22.84;81.61;98963.56;4982126;28;20031;-62
2023/09/08 00:25:15;;;;;;;8.18;6.63;;;;;;;22.82;81.76;98966.41;4979556;28;20088;-62
2023/09/08 00:27:41;;;;;;;9.98;6.53;;;;;;;22.80;81.43;98965.81;4997665;28;20042;-63
2023/09/08 00:30:07;;;;;;;9.80;6.85;;;;;;;22.84;81.50;98963.56;4977729;28;20034;-62
2023/09/08 00:32:32;;;;;;;10.57;7.20;;;;;;;22.74;81.95;98964.00;4967685;28;20089;-63
2023/09/08 00:35:02;;;;;;;9.10;7.03;;;;;;;22.72;82.78;98962.63;4983883;28;20081;-64
2023/09/08 00:37:27;;;;;;;10.30;7.25;;;;;;;22.71;82.29;98961.81;4980636;28;20221;-63
2023/09/08 00:39:53;;;;;;;10.00;7.45;;;;;;;22.53;83.21;98953.78;4977376;28;20031;-64
2023/09/08 00:42:18;;;;;;;11.13;7.30;;;;;;;22.36;83.29;98929.63;4982135;28;20030;-63
2023/09/08 00:44:44;;;;;;;9.65;6.47;;;;;;;22.58;83.39;98959.22;4994683;28;20129;-62
2023/09/08 00:47:09;;;;;;;9.93;7.15;;;;;;;22.49;83.91;98961.34;4981634;28;20803;-62
2023/09/08 00:49:34;;;;;;;10.60;7.03;;;;;;;22.45;84.52;98954.84;4980212;28;20084;-63
2023/09/08 00:52:00;;;;;;;9.32;6.82;;;;;;;22.45;84.12;98960.97;4973220;28;20034;-63
2023/09/08 00:54:25;;;;;;;9.73;7.75;;;;;;;22.48;84.16;98956.25;4962578;28;21302;-64
2023/09/08 00:56:57;;;;;;;9.07;7.10;;;;;;;22.46;83.36;98956.47;4970265;28;20025;-64
2023/09/08 00:59:24;;;;;;;9.18;6.78;;;;;;;22.37;83.56;98952.44;4982912;28;20163;-64
2023/09/08 01:01:50;;;;;;;10.20;7.32;;;;;;;22.36;83.94;98956.13;4987780;28;20114;-64
2023/09/08 01:04:20;;;;;;;10.07;7.28;;;;;;;22.35;83.41;98954.50;4978484;28;20034;-64
2023/09/08 01:06:49;;;;;;;8.57;7.00;;;;;;;22.35;83.63;98951.84;4977586;28;20082;-63
2023/09/08 01:09:15;;;;;;;10.73;7.10;;;;;;;22.05;83.92;98908.19;4979361;28;20058;-64
2023/09/08 01:11:41;;;;;;;9.00;7.00;;;;;;;22.15;84.14;98942.16;4966034;28;20065;-63
2023/09/08 01:14:11;;;;;;;8.68;6.63;;;;;;;22.14;84.10;98937.06;4967160;28;20117;-63
2023/09/08 01:16:37;;;;;;;8.80;7.15;;;;;;;22.14;84.41;98948.47;4966727;28;20046;-62
2023/09/08 01:19:03;;;;;;;9.43;7.30;;;;;;;22.18;84.27;98951.53;4982880;28;20034;-63
2023/09/08 01:21:34;;;;;;;9.18;6.93;;;;;;;22.05;83.81;98920.59;4964379;28;20030;-63
2023/09/08 01:24:05;;;;;;;11.15;7.35;;;;;;;22.22;83.99;98947.41;4983738;28;20445;-64
2023/09/08 01:26:36;;;;;;;11.15;7.13;;;;;;;22.18;84.11;98935.63;4996801;28;20034;-65
2023/09/08 01:29:07;;;;;;;8.98;6.93;;;;;;;22.11;84.41;98948.09;4998706;28;20030;-63
2023/09/08 01:31:32;;;;;;;9.15;7.10;;;;;;;21.96;85.12;98945.69;5013111;28;20034;-63
2023/09/08 01:34:00;;;;;;;9.43;6.90;;;;;;;21.92;84.88;98940.00;4994657;28;20030;-63
2023/09/08 01:36:28;;;;;;;10.40;7.05;;;;;;;21.76;84.86;98908.72;4977346;28;20508;-63
2023/09/08 01:38:53;;;;;;;9.45;7.22;;;;;;;21.98;84.55;98925.94;4972901;28;20042;-63
2023/09/08 01:41:19;;;;;;;9.88;7.20;;;;;;;22.03;84.58;98925.28;4974260;28;20122;-62
2023/09/08 01:43:44;;;;;;;12.00;7.22;;;;;;;21.97;84.86;98923.50;4987742;28;20588;-63
2023/09/08 01:46:09;;;;;;;10.25;7.03;;;;;;;21.95;84.29;98921.06;4976778;28;20027;-63
2023/09/08 01:48:35;;;;;;;9.98;6.97;;;;;;;21.95;84.37;98920.25;4982648;28;20481;-63
2023/09/08 01:51:00;;;;;;;8.77;6.68;;;;;;;21.86;84.87;98927.63;4977722;28;20054;-64
2023/09/08 01:53:25;;;;;;;8.18;6.93;;;;;;;21.69;84.93;98914.84;4981449;28;20034;-63
2023/09/08 01:55:51;;;;;;;9.45;7.07;;;;;;;21.61;85.38;98920.41;4979315;28;20034;-63
2023/09/08 01:58:19;;;;;;;10.00;7.15;;;;;;;21.42;85.79;98900.06;4980172;28;20073;-63
2023/09/08 02:00:49;;;;;;;9.25;7.38;;;;;;;21.58;85.46;98920.81;4982221;28;20041;-64
2023/09/08 02:03:15;;;;;;;9.02;6.85;;;;;;;21.68;85.21;98918.53;4979737;28;20146;-64
2023/09/08 02:05:43;;;;;;;11.23;7.47;;;;;;;21.74;84.73;98910.75;4985502;28;20065;-63
2023/09/08 02:08:08;;;;;;;10.75;7.13;;;;;;;21.63;84.74;98891.06;4989934;28;20042;-63
2023/09/08 02:10:36;;;;;;;10.10;6.97;;;;;;;21.65;84.74;98911.00;4965328;28;20027;-67
2023/09/08 02:13:06;;;;;;;9.93;7.03;;;;;;;21.64;84.97;98909.38;4977375;28;20030;-63
2023/09/08 02:15:31;;;;;;;11.57;7.85;;;;;;;21.69;84.38;98914.06;4981903;28;20147;-63
2023/09/08 02:17:59;;;;;;;9.73;6.72;;;;;;;21.70;84.24;98905.06;4970643;28;21373;-63
2023/09/08 02:20:26;;;;;;;8.23;7.18;;;;;;;21.50;84.19;98886.63;4975790;28;20022;-64
2023/09/08 02:22:54;;;;;;;9.70;7.47;;;;;;;21.60;84.06;98910.03;4976281;28;20104;-63
2023/09/08 02:25:19;;;;;;;11.68;7.43;;;;;;;21.37;84.50;98902.50;4975871;28;20411;-64
2023/09/08 02:27:45;;;;;;;10.80;7.53;;;;;;;21.36;84.81;98911.50;4977470;28;20031;-64
2023/09/08 02:30:12;;;;;;;9.85;7.25;;;;;;;21.35;85.10;98907.22;5008588;28;20026;-63
2023/09/08 02:32:38;;;;;;;9.85;7.30;;;;;;;21.41;84.74;98911.66;4973502;28;20030;-61
2023/09/08 02:35:06;;;;;;;10.30;7.70;;;;;;;21.30;85.17;98903.34;4963921;28;20034;-64
2023/09/08 02:37:34;;;;;;;12.43;7.85;;;;;;;21.32;84.96;98911.09;4978371;28;20727;-64
2023/09/08 02:40:03;;;;;;;9.88;7.57;;;;;;;21.28;85.44;98918.63;4996707;28;20037;-64
2023/09/08 02:42:31;;;;;;;9.98;8.27;;;;;;;21.20;85.42;98920.66;4972602;28;20079;-63
2023/09/08 02:44:56;;;;;;;12.18;7.97;;;;;;;21.17;85.84;98926.34;4987986;28;20038;-64
2023/09/08 02:47:22;;;;;;;11.63;8.20;;;;;;;21.23;85.43;98917.59;4983086;28;20048;-65
2023/09/08 02:49:47;;;;;;;10.88;8.35;;;;;;;21.35;84.97;98918.59;4985593;28;20092;-63
2023/09/08 02:52:12;;;;;;;10.60;8.07;;;;;;;21.40;84.81;98915.34;4959388;28;20031;-63
2023/09/08 02:54:39;;;;;;;10.32;8.85;;;;;;;21.29;85.03;98911.50;4977477;28;20034;-63
2023/09/08 02:57:04;;;;;;;13.85;7.97;;;;;;;21.26;85.03;98911.91;4958010;28;20022;-63
2023/09/08 02:59:30;;;;;;;12.38;8.20;;;;;;;21.24;85.12;98914.75;4976947;28;20036;-64
2023/09/08 03:01:55;;;;;;;11.25;8.55;;;;;;;21.02;85.34;98879.00;5000117;28;20505;-63
2023/09/08 03:04:21;;;;;;;12.82;8.30;;;;;;;21.21;85.70;98917.00;4983787;28;20034;-63
2023/09/08 03:06:47;;;;;;;10.40;7.90;;;;;;;21.11;85.78;98912.13;4984329;28;20107;-63
2023/09/08 03:09:12;;;;;;;13.32;8.32;;;;;;;21.09;85.95;98907.03;4986929;28;20060;-63
2023/09/08 03:11:37;;;;;;;11.63;8.73;;;;;;;20.98;86.49;98905.03;4980921;28;20038;-63
2023/09/08 03:14:03;;;;;;;11.70;8.18;;;;;;;21.15;85.85;98910.69;4965467;28;20532;-63
2023/09/08 03:16:31;;;;;;;11.52;8.43;;;;;;;21.14;85.33;98906.44;4981708;28;20034;-63
2023/09/08 03:18:56;;;;;;;11.57;8.77;;;;;;;21.10;85.37;98897.28;4984418;28;20136;-64
2023/09/08 03:21:21;;;;;;;11.65;8.32;;;;;;;21.12;85.66;98905.84;4962974;28;20030;-63
2023/09/08 03:23:47;;;;;;;10.35;8.25;;;;;;;20.83;86.35;98885.94;4983549;28;20159;-65
2023/09/08 03:26:13;;;;;;;11.25;7.72;;;;;;;20.85;87.24;98905.84;4979943;28;20034;-65
2023/09/08 03:28:40;;;;;;;11.30;8.60;;;;;;;20.88;87.26;98908.09;4978536;28;20500;-63
2023/09/08 03:31:08;;;;;;;10.63;8.57;;;;;;;20.90;87.15;98914.00;4985503;28;20078;-62
2023/09/08 03:33:34;;;;;;;13.82;9.13;;;;;;;20.93;86.64;98900.34;4965972;28;20124;-65
2023/09/08 03:36:02;;;;;;;12.68;8.30;;;;;;;20.97;86.22;98905.22;4987476;28;20034;-64
2023/09/08 03:38:27;;;;;;;11.25;7.82;;;;;;;20.99;85.90;98905.84;4985090;28;20023;-64
2023/09/08 03:40:53;;;;;;;10.65;8.07;;;;;;;20.93;85.70;98895.06;4972169;28;20027;-64
2023/09/08 03:43:18;;;;;;;11.00;8.13;;;;;;;21.07;85.00;98895.88;4988099;28;20657;-62
2023/09/08 03:45:44;;;;;;;11.90;8.05;;;;;;;21.09;84.84;98899.09;4980933;28;20050;-64
2023/09/08 03:48:09;;;;;;;14.13;8.63;;;;;;;21.01;84.50;98890.56;4968527;28;20026;-65
2023/09/08 03:50:35;;;;;;;14.57;7.85;;;;;;;20.81;84.82;98864.16;4998627;28;20040;-65
2023/09/08 03:53:03;;;;;;;14.57;8.18;;;;;;;20.93;85.10;98892.41;4981535;28;20050;-64
2023/09/08 03:55:30;;;;;;;16.90;8.02;;;;;;;20.86;85.29;98885.50;4961419;28;20077;-65
2023/09/08 03:57:57;;;;;;;10.25;7.50;;;;;;;20.69;85.36;98888.56;4964271;28;20121;-65
2023/09/08 04:00:23;;;;;;;11.55;7.38;;;;;;;20.61;86.20;98891.44;4993732;28;20157;-64
2023/09/08 04:02:48;;;;;;;14.70;7.80;;;;;;;20.83;85.17;98888.59;4979783;28;20026;-64
2023/09/08 04:05:17;;;;;;;15.05;7.68;;;;;;;20.92;84.57;98882.06;4969808;28;20058;-64
2023/09/08 04:07:42;;;;;;;13.80;7.75;;;;;;;20.84;84.66;98872.50;4962857;28;20109;-65
2023/09/08 04:10:12;;;;;;;11.68;7.97;;;;;;;20.80;85.27;98879.22;4977985;28;20110;-64
2023/09/08 04:12:38;;;;;;;;;;;;;;;20.81;85.34;98875.56;4993428;28;20088;-65
2023/09/08 04:15:04;;;;;;;14.05;7.47;;;;;;;20.85;85.24;98871.50;4980224;28;19918;-64
2023/09/08 04:17:29;;;;;;;13.70;7.97;;;;;;;20.80;85.77;98873.94;4981309;28;20041;-66
2023/09/08 04:19:57;;;;;;;11.95;8.48;;;;;;;20.63;86.26;98873.53;4959753;28;20050;-65
2023/09/08 04:22:24;;;;;;;13.50;8.52;;;;;;;20.66;86.14;98873.16;4978691;28;20022;-67
2023/09/08 04:24:50;;;;;;;12.52;7.90;;;;;;;20.54;85.59;98850.97;4975470;28;20070;-64
2023/09/08 04:27:18;;;;;;;15.43;8.70;;;;;;;20.74;84.93;98866.84;4978296;28;20133;-64
2023/09/08 04:29:43;;;;;;;11.68;8.23;;;;;;;20.79;84.55;98879.41;4987281;28;20034;-64
2023/09/08 04:32:08;;;;;;;15.52;8.90;;;;;;;20.78;84.72;98875.97;4986820;28;20038;-65
2023/09/08 04:34:39;;;;;;;15.35;8.20;;;;;;;20.69;85.43;98872.72;4981704;28;20681;-64
2023/09/08 04:37:04;;;;;;;16.02;8.52;;;;;;;20.68;85.51;98873.75;4962978;28;20038;-66
2023/09/08 04:39:30;;;;;;;17.30;8.45;;;;;;;20.72;85.13;98879.44;4971706;28;20673;-65
2023/09/08 04:41:58;;;;;;;18.63;7.65;;;;;;;20.72;85.78;98879.44;4978447;28;20363;-65
2023/09/08 04:44:23;;;;;;;13.00;8.07;;;;;;;20.50;86.16;98886.72;4980406;28;20042;-65
2023/09/08 04:46:51;;;;;;;17.58;8.25;;;;;;;20.54;85.64;98885.28;4968114;28;20026;-65
2023/09/08 04:49:19;;;;;;;11.50;8.02;;;;;;;20.51;85.27;98888.34;4983625;28;20031;-65
2023/09/08 04:51:44;;;;;;;13.57;7.90;;;;;;;20.45;85.24;98897.06;4996555;28;20627;-65
2023/09/08 04:54:12;;;;;;;12.20;7.85;;;;;;;20.47;84.88;98887.13;4976638;28;20133;-64
2023/09/08 04:56:41;;;;;;;10.45;7.53;;;;;;;20.58;83.83;98880.44;4988221;28;20038;-65
2023/09/08 04:59:06;;;;;;;10.68;8.00;;;;;;;20.58;83.63;98883.88;4978377;28;20715;-65
2023/09/08 05:01:32;;;;;;;11.25;8.05;;;;;;;20.48;84.20;98891.38;4976055;28;20298;-65
2023/09/08 05:03:59;;;;;;;11.48;7.28;;;;;;;20.50;83.94;98890.16;4979758;28;20029;-64
2023/09/08 05:06:27;;;;;;;14.77;7.78;;;;;;;20.33;84.92;98894.19;4976552;28;20058;-65
2023/09/08 05:08:52;;;;;;;12.27;7.97;;;;;;;20.33;84.80;98884.47;4992100;28;20075;-65
2023/09/08 05:11:20;;;;;;;10.18;7.53;;;;;;;20.47;84.46;98887.91;4979125;28;20138;-64
2023/09/08 05:13:49;;;;;;;16.90;7.82;;;;;;;20.46;84.46;98882.84;4977219;28;20525;-65
2023/09/08 05:16:18;;;;;;;16.20;8.77;;;;;;;20.33;84.20;98855.44;4982320;28;20050;-64
2023/09/08 05:18:44;;;;;;;15.80;8.82;;;;;;;20.47;84.58;98882.63;4980778;28;20061;-65
2023/09/08 05:21:09;;;;;;;13.75;9.43;;;;;;;20.45;84.28;98889.16;4979469;28;20465;-66
2023/09/08 05:23:35;;;;;;;12.52;8.75;;;;;;;20.31;84.28;98865.34;4978008;28;20041;-66
2023/09/08 05:26:00;;;;;;;17.50;9.38;;;;;;;20.30;85.20;98892.78;4962970;28;20162;-66
2023/09/08 05:28:26;;;;;;;18.63;9.98;;;;;;;20.45;84.33;98895.25;4983744;28;20090;-66
2023/09/08 05:30:56;;;;;;;11.15;8.88;;;;;;;20.50;83.88;98898.09;4962042;28;20045;-65
2023/09/08 05:33:23;;;;;;;15.93;9.65;;;;;;;20.56;83.35;98896.47;4959948;28;20186;-67
2023/09/08 05:35:49;;;;;;;14.75;8.65;;;;;;;20.66;83.36;98894.28;4967629;28;20789;-66
2023/09/08 05:38:14;;;;;;;13.82;8.55;;;;;;;20.63;83.22;98904.44;4981535;28;20036;-65
2023/09/08 05:40:40;;;;;;;20.55;9.15;;;;;;;20.40;83.90;98913.50;4974558;28;20682;-65
2023/09/08 05:43:05;;;;;;;19.67;9.02;;;;;;;20.38;84.32;98920.81;4992982;28;20022;-64
2023/09/08 05:45:34;;;;;;;15.10;9.35;;;;;;;20.46;83.88;98915.38;4975835;28;20027;-66
2023/09/08 05:48:04;;;;;;;17.75;9.98;;;;;;;20.59;83.88;98925.13;4975337;28;20678;-66
2023/09/08 05:50:30;;;;;;;18.38;9.48;;;;;;;20.64;83.36;98919.25;4986139;28;20049;-65
2023/09/08 05:52:55;;;;;;;14.93;9.88;;;;;;;20.53;83.51;98889.78;4973053;28;21524;-64
2023/09/08 05:55:21;;;;;;;16.83;9.52;;;;;;;20.74;83.35;98924.97;4986816;28;20037;-64
2023/09/08 05:57:49;;;;;;;22.77;9.85;;;;;;;20.69;83.08;98930.03;4959052;28;20035;-66
2023/09/08 06:00:15;;;;;;;21.08;9.20;;;;;;;20.85;82.90;98926.19;4963912;28;20065;-64
2023/09/08 06:02:40;;;;;;;16.38;9.25;;;;;;;20.92;82.58;98927.81;4966611;28;20027;-65
2023/09/08 06:05:09;;;;;;;15.98;9.15;;;;;;;20.83;82.48;98928.22;4994282;28;20692;-65
2023/09/08 06:07:37;;;;;;;16.20;8.90;;;;;;;20.93;82.58;98918.03;4971462;28;20420;-64
2023/09/08 06:10:03;;;;;;;13.43;8.75;;;;;;;20.87;82.48;98903.81;4961281;28;20030;-65
2023/09/08 06:12:31;;;;;;;16.30;9.52;;;;;;;20.96;83.26;98919.47;4974264;28;20027;-64
2023/09/08 06:14:58;;;;;;;18.17;9.40;;;;;;;20.96;83.31;98922.13;4957805;28;20029;-66
2023/09/08 06:17:24;;;;;;;17.45;9.02;;;;;;;21.08;83.54;98920.47;4982202;28;20089;-66
2023/09/08 06:19:49;;;;;;;19.95;9.35;;;;;;;21.19;82.90;98925.16;4961130;28;20477;-65
2023/09/08 06:22:19;;;;;;;14.02;8.82;;;;;;;21.24;82.50;98932.44;4965068;28;20117;-65
2023/09/08 06:24:45;;;;;;;13.07;8.82;;;;;;;21.33;81.66;98927.75;4978745;28;20208;-66
2023/09/08 06:27:13;;;;;;;13.60;8.75;;;;;;;21.48;81.41;98928.34;4977168;28;20057;-65
2023/09/08 06:29:43;;;;;;;16.48;8.82;;;;;;;21.48;81.40;98923.91;4981391;28;20173;-65
2023/09/08 06:32:09;;;;;;;15.45;8.57;;;;;;;21.36;82.85;98927.34;4975578;28;20034;-65
2023/09/08 06:34:35;;;;;;;17.48;9.15;;;;;;;21.37;83.49;98931.59;4966517;28;20054;-66
2023/09/08 06:37:03;;;;;;;14.30;7.75;;;;;;;21.53;83.30;98931.19;4974851;28;20037;-64
2023/09/08 06:39:29;;;;;;;13.48;8.95;;;;;;;21.66;82.56;98935.63;5009545;28;21362;-65
2023/09/08 06:41:57;;;;;;;10.40;8.10;;;;;;;21.66;82.47;98928.50;4978732;28;20038;-66
2023/09/08 06:44:23;;;;;;;12.10;8.60;;;;;;;21.75;82.44;98925.63;4989715;28;20056;-66
2023/09/08 06:46:48;;;;;;;16.48;8.30;;;;;;;21.66;83.54;98931.16;4971979;28;20830;-66
2023/09/08 06:49:14;;;;;;;12.95;9.02;;;;;;;21.58;84.45;98933.22;4971280;28;20115;-65
2023/09/08 06:51:41;;;;;;;11.50;9.23;;;;;;;21.48;86.87;98929.19;4979544;28;20029;-65
2023/09/08 06:54:09;;;;;;;12.75;8.65;;;;;;;21.46;88.43;98936.50;4979555;28;20053;-64
2023/09/08 06:56:39;;;;;;;13.23;10.13;;;;;;;21.46;88.76;98933.84;4990251;28;20027;-65
2023/09/08 06:59:07;;;;;;;13.80;9.35;;;;;;;21.43;89.16;98941.34;4959915;28;20027;-64
2023/09/08 07:01:32;;;;;;;13.43;10.20;;;;;;;21.09;90.83;98932.69;4985771;28;20522;-65
2023/09/08 07:04:00;;;;;;;13.27;10.15;;;;;;;21.31;90.32;98944.63;4951394;28;20045;-66
2023/09/08 07:06:27;;;;;;;12.00;9.82;;;;;;;21.25;90.88;98936.72;4959263;28;20065;-65
2023/09/08 07:08:53;;;;;;;12.68;9.95;;;;;;;21.34;90.71;98924.06;4990755;28;20039;-66
2023/09/08 07:11:19;;;;;;;12.50;10.23;;;;;;;21.50;90.63;98936.88;4964654;28;20068;-65
2023/09/08 07:13:44;;;;;;;14.90;10.05;;;;;;;21.52;90.48;98934.03;4973225;28;20102;-65
2023/09/08 07:16:10;;;;;;;13.23;10.00;;;;;;;21.27;92.01;98903.75;4975019;28;20117;-68
2023/09/08 07:18:38;;;;;;;12.60;9.55;;;;;;;21.64;91.82;98932.38;4965411;28;20672;-66
2023/09/08 07:21:06;;;;;;;13.05;10.02;;;;;;;21.81;90.91;98932.72;4978821;28;20036;-66
2023/09/08 07:23:31;;;;;;;12.55;9.63;;;;;;;21.89;90.85;98927.22;4965526;28;20033;-66
2023/09/08 07:25:57;;;;;;;12.43;9.80;;;;;;;21.32;90.54;98850.25;4976634;28;20031;-65
2023/09/08 07:28:22;;;;;;;12.15;8.85;;;;;;;21.57;91.61;98903.28;4980137;28;20084;-65
2023/09/08 07:30:47;;;;;;;12.00;9.70;;;;;;;21.88;91.46;98930.88;4991206;28;20086;-65
2023/09/08 07:33:15;;;;;;;13.32;9.60;;;;;;;21.72;92.67;98929.50;4985973;28;20033;-65
2023/09/08 07:35:40;;;;;;;13.48;9.80;;;;;;;21.62;92.71;98911.41;4981813;28;20034;-66
2023/09/08 07:38:06;;;;;;;12.55;9.48;;;;;;;21.38;94.07;98904.97;4979600;28;20061;-66
2023/09/08 07:40:32;;;;;;;12.55;9.65;;;;;;;21.69;94.32;98943.16;4966301;28;20034;-65
2023/09/08 07:43:03;;;;;;;12.90;9.95;;;;;;;21.93;93.80;98941.63;4977422;28;20073;-66
2023/09/08 07:45:28;;;;;;;11.55;9.27;;;;;;;21.86;94.02;98935.56;4963402;28;20038;-67
2023/09/08 07:47:54;;;;;;;11.73;9.90;;;;;;;21.98;93.74;98933.09;4966534;28;20157;-65
2023/09/08 07:50:27;;;;;;;14.30;9.90;;;;;;;22.00;93.57;98909.84;4967001;28;20713;-67
2023/09/08 07:52:54;;;;;;;11.98;9.07;;;;;;;22.23;93.76;98935.78;5005685;28;20444;-66
2023/09/08 07:55:22;;;;;;;10.40;9.30;;;;;;;22.30;92.66;98941.88;4980080;28;20053;-66
2023/09/08 07:57:48;;;;;;;12.67;9.93;;;;;;;22.05;92.11;98917.94;4975998;28;20038;-65
2023/09/08 08:00:14;;;;;;;14.32;10.35;;;;;;;22.17;91.92;98939.28;4986420;28;20034;-66
2023/09/08 08:02:48;;;;;;;14.68;10.23;;;;;;;22.26;90.58;98943.34;4968863;28;20386;-65
2023/09/08 08:05:13;;;;;;;14.35;9.75;;;;;;;22.26;90.66;98919.50;4969696;28;20037;-66
2023/09/08 08:07:43;;;;;;;14.02;9.77;;;;;;;22.38;89.80;98939.00;4983780;28;20057;-66
2023/09/08 08:10:12;;;;;;;10.77;9.10;;;;;;;22.35;89.84;98931.47;4970442;28;20042;-66
2023/09/08 08:12:41;;;;;;;13.23;10.07;;;;;;;22.13;90.83;98936.25;4972628;28;20035;-66
2023/09/08 08:15:10;;;;;;;14.15;10.07;;;;;;;22.04;91.21;98903.91;4973171;28;20029;-65
2023/09/08 08:17:38;;;;;;;12.13;10.43;;;;;;;22.21;90.97;98932.53;4962801;28;20046;-67
2023/09/08 08:20:09;;;;;;;13.15;9.73;;;;;;;22.24;90.48;98929.47;4964482;28;20145;-67
2023/09/08 08:22:40;;;;;;;12.30;9.95;;;;;;;22.46;89.28;98927.31;4960270;28;20053;-67
2023/09/08 08:25:06;;;;;;;13.65;10.45;;;;;;;22.30;90.02;98919.91;4966360;28;20026;-67
2023/09/08 08:27:31;;;;;;;11.88;9.70;;;;;;;22.44;89.33;98932.03;4978824;28;20041;-66
2023/09/08 08:30:00;;;;;;;11.93;9.35;;;;;;;22.48;89.54;98935.06;4980870;28;20042;-65
2023/09/08 08:32:26;;;;;;;12.65;10.18;;;;;;;22.62;88.65;98928.66;4983172;28;20034;-65
2023/09/08 08:34:51;;;;;;;9.75;7.03;;;;;;;22.67;83.75;98928.81;4964890;28;20369;-67
2023/09/08 08:37:20;;;;;;;8.25;6.88;;;;;;;22.79;81.82;98931.56;4965074;28;20121;-66
2023/09/08 08:39:47;;;;;;;10.00;6.80;;;;;;;22.88;80.04;98927.63;4965222;28;20051;-65
2023/09/08 08:42:15;;;;;;;9.20;6.22;;;;;;;22.77;77.51;98901.81;4980240;28;20066;-65
2023/09/08 08:44:41;;;;;;;11.23;7.03;;;;;;;22.74;78.01;98905.69;4981365;28;20054;-66
2023/09/08 08:47:07;;;;;;;8.90;6.78;;;;;;;22.93;78.86;98919.84;4999841;28;20052;-66
2023/09/08 08:49:33;;;;;;;9.57;6.72;;;;;;;23.10;75.92;98924.63;4982806;28;20512;-65
2023/09/08 08:52:00;;;;;;;10.20;6.78;;;;;;;23.07;74.76;98919.72;4999862;28;20026;-66
2023/09/08 08:54:25;;;;;;;10.30;6.40;;;;;;;23.25;75.76;98933.03;4994954;28;20038;-66
2023/09/08 08:56:54;;;;;;;10.15;6.15;;;;;;;23.05;73.43;98903.22;4965974;28;20104;-66
2023/09/08 08:59:21;;;;;;;8.87;6.00;;;;;;;23.09;73.02;98901.75;4980643;28;20030;-64
2023/09/08 09:01:47;;;;;;;9.10;6.57;;;;;;;23.28;71.97;98927.28;4981448;28;20375;-67
2023/09/08 09:04:13;;;;;;;10.38;6.88;;;;;;;23.33;71.16;98930.09;4981008;28;20034;-66
2023/09/08 09:06:38;;;;;;;7.93;4.82;;;;;;;23.30;70.02;98909.31;4997796;28;20133;-66
2023/09/08 09:09:04;;;;;;;10.00;5.68;;;;;;;23.38;69.01;98914.34;4965396;28;20053;-65
2023/09/08 09:11:32;;;;;;;9.07;6.22;;;;;;;23.57;67.96;98917.00;4999841;28;20034;-66
2023/09/08 09:14:01;;;;;;;7.88;4.93;;;;;;;23.63;66.07;98909.97;4979848;28;20109;-67
2023/09/08 09:16:26;;;;;;;9.90;4.63;;;;;;;23.68;64.88;98891.53;4982524;28;20037;-65
2023/09/08 09:18:59;;;;;;;6.65;4.00;;;;;;;24.08;62.54;98917.63;4982347;28;20042;-65
2023/09/08 09:21:42;;;;;;;7.35;4.40;;;;;;;24.27;61.83;98908.53;4994504;28;20041;-67
2023/09/08 09:24:07;;;;;;;6.25;4.03;;;;;;;24.26;60.54;98891.00;4998294;28;20034;-66
2023/09/08 09:26:33;;;;;;;10.35;5.18;;;;;;;24.21;66.63;98901.47;4998460;28;20041;-67
2023/09/08 09:28:59;;;;;;;6.72;4.57;;;;;;;24.40;66.92;98910.19;4983710;28;20038;-67
2023/09/08 09:31:27;;;;;;;8.15;4.45;;;;;;;24.48;64.76;98907.22;4997221;28;20080;-65
2023/09/08 09:34:04;;;;;;;7.80;4.70;;;;;;;24.59;64.03;98910.97;4963124;28;20037;-66
2023/09/08 09:36:29;;;;;;;7.00;4.20;;;;;;;24.66;61.63;98905.53;4998051;28;20041;-66
2023/09/08 09:39:03;;;;;;;8.23;4.00;;;;;;;24.98;56.85;98903.38;4985605;28;20059;-66
2023/09/08 09:41:29;;;;;;;7.95;4.25;;;;;;;25.21;55.98;98889.25;4963942;28;20124;-65
2023/09/08 09:43:56;;;;;;;6.72;3.97;;;;;;;25.42;56.84;98889.69;4996167;28;20528;-65
2023/09/08 09:46:24;;;;;;;6.97;4.63;;;;;;;25.45;53.62;98891.91;4995373;28;20023;-66
2023/09/08 09:49:00;;;;;;;8.82;4.20;;;;;;;25.49;54.28;98893.84;4995857;28;20031;-65
2023/09/08 09:51:29;;;;;;;8.02;4.22;;;;;;;25.60;53.19;98883.41;4974654;28;20048;-67
2023/09/08 09:53:58;;;;;;;7.68;4.13;;;;;;;25.59;54.07;98857.81;4997993;28;20105;-64
2023/09/08 09:56:23;;;;;;;;;;;;;;;25.75;50.75;98891.69;4962872;28;20608;-65
2023/09/08 09:58:51;;;;;;;7.03;4.10;;;;;;;25.73;51.90;98858.38;4977601;28;19972;-66
2023/09/08 10:01:17;;;;;;;8.10;4.10;;;;;;;25.87;52.94;98881.81;4977553;28;20026;-67
2023/09/08 10:03:42;;;;;;;6.20;4.35;;;;;;;25.86;52.24;98858.88;4981098;28;20045;-65
2023/09/08 10:06:08;;;;;;;7.07;4.22;;;;;;;25.96;51.93;98860.16;4963474;28;20061;-65
2023/09/08 10:08:40;;;;;;;6.82;3.95;;;;;;;25.95;53.09;98869.97;4998545;28;20673;-64
2023/09/08 10:11:07;;;;;;;10.27;4.45;;;;;;;26.07;50.53;98872.59;4963908;28;20038;-65
2023/09/08 10:13:42;;;;;;;8.07;4.38;;;;;;;26.00;51.04;98867.41;4973739;28;20022;-65
2023/09/08 10:16:08;;;;;;;6.93;4.50;;;;;;;25.98;51.65;98852.72;4986093;28;20070;-66
2023/09/08 10:18:35;;;;;;;6.93;4.28;;;;;;;26.01;51.16;98857.56;4996257;28;20030;-65
2023/09/08 10:21:04;;;;;;;8.57;4.43;;;;;;;25.94;55.73;98856.91;4960621;28;20081;-66
2023/09/08 10:23:32;;;;;;;;;;;;;;;25.84;55.72;98862.81;4980033;28;20606;-66
2023/09/08 10:26:00;;;;;;;8.18;4.80;;;;;;;25.92;56.95;98853.63;4980450;28;20036;-66
2023/09/08 10:28:29;;;;;;;7.70;4.80;;;;;;;25.79;57.34;98860.91;4995124;28;20731;-66
2023/09/08 10:30:55;;;;;;;7.35;4.57;;;;;;;25.92;55.20;98850.97;4979682;28;20026;-66
2023/09/08 10:33:23;;;;;;;8.05;4.18;;;;;;;25.78;53.17;98853.94;4979923;28;20038;-66
2023/09/08 10:35:49;;;;;;;11.57;4.80;;;;;;;25.67;53.09;98826.31;4994817;28;20060;-67
2023/09/08 10:38:28;;;;;;;8.38;4.88;;;;;;;26.04;54.57;98835.78;4980630;28;20552;-65
2023/09/08 10:41:16;;;;;;;6.32;4.65;;;;;;;26.03;53.68;98842.97;4979994;28;20072;-65
2023/09/08 10:43:44;;;;;;;7.75;5.10;;;;;;;25.94;51.18;98838.25;4979437;28;20885;-66
2023/09/08 10:46:12;;;;;;;8.10;4.97;;;;;;;25.93;52.12;98807.34;4997569;28;20045;-66
2023/09/08 10:48:45;;;;;;;7.55;4.78;;;;;;;26.08;51.73;98831.56;4979144;28;20038;-64
2023/09/08 10:51:14;;;;;;;6.93;4.50;;;;;;;26.15;53.18;98828.78;4984614;28;20022;-65
2023/09/08 10:53:40;;;;;;;7.43;4.53;;;;;;;26.18;52.36;98812.31;4983260;28;20109;-64
2023/09/08 10:56:10;;;;;;;7.05;4.40;;;;;;;25.90;52.44;98829.91;4973645;28;20117;-64
2023/09/08 10:58:40;;;;;;;7.63;5.05;;;;;;;25.96;52.76;98799.69;4978509;28;20043;-65
2023/09/08 11:01:13;;;;;;;7.45;4.63;;;;;;;26.23;54.24;98821.19;4986606;28;20022;-65
2023/09/08 11:03:41;;;;;;;8.38;4.82;;;;;;;26.36;53.26;98830.72;4983848;28;20034;-65
2023/09/08 11:06:08;;;;;;;8.25;4.72;;;;;;;26.16;52.31;98819.72;4982736;28;20576;-66
2023/09/08 11:08:35;;;;;;;6.43;4.57;;;;;;;26.30;53.59;98828.22;4966875;28;20129;-65
2023/09/08 11:11:01;;;;;;;6.88;4.57;;;;;;;26.28;52.77;98823.13;4976031;28;20050;-66
2023/09/08 11:13:29;;;;;;;8.38;5.00;;;;;;;26.16;52.71;98825.88;4992734;28;20042;-67
2023/09/08 11:15:57;;;;;;;8.65;4.93;;;;;;;26.00;52.66;98814.13;4982143;28;20121;-67
2023/09/08 11:18:26;;;;;;;7.03;5.13;;;;;;;25.97;53.24;98809.28;4966036;28;20718;-64
2023/09/08 11:20:52;;;;;;;7.40;5.10;;;;;;;25.99;52.70;98815.16;4982145;28;20454;-65
2023/09/08 11:23:18;;;;;;;10.18;5.35;;;;;;;26.02;53.37;98808.56;4981664;28;20068;-65
2023/09/08 11:25:46;;;;;;;9.00;5.15;;;;;;;26.04;53.01;98803.81;4983324;28;20054;-65
2023/09/08 11:28:12;;;;;;;8.63;4.75;;;;;;;26.09;54.54;98806.56;4981319;28;20030;-65